Strona główna
METAR-TAF:

METAR-TAF

Lotnisko :

Châlons-en-Champagne, Francja

Szerokość geograficzna: 48-46-34N, Długość geograficzna: 004-11-04E, wysokość: 179 m

Aktualna obserwacja pogody

Raport powstał 22 minut temu, godzina 13:00 UTC
Wiatr 4 kt od wschodnio-południowy wschód, zmienny między północny wschód i południe
Temperatura 28°C
Wilgotność 40%
Ciśnienie 1019 hPa
Widzialność 10 km lub więcej
Brak chmur poniżej 1500 m i brak chmur cumulonimbus

METAR: LFOK 241300Z AUTO 12004KT 050V180 CAVOK 28/13 Q1019 NOSIG

czas: 15:22 (13:22 UTC)

Prognoza

Raport powstał 2 godziny i 22 minut temu, godzina 11:00 UTC
Prognoza ważna od 24 godzina 12 UTC do 25 godzina 12 UTC
Wiatr 7 kt od wschód
Widzialność 10 km lub więcej
Brak chmur poniżej 1500 m i brak chmur cumulonimbus

TAF: LFOK 241100Z 2412/2512 08007KT CAVOK

Obserwacja i prognoza pogody dla ponad 4000 lotnisk (raport METAR i TAF).

Dostępne stacje oznaczono żółtymi i czerwonymi punktami na mapie.

Najedź kursorem aby zobaczyć nazwę stacji.

Kliknij aby zobaczyć obserwacje i prognozy pogody.

Aby zmienić mapę: kliknij na zielony przycisk z czarnym krzyżykiem, aby powiększyć; na zielony przycisk z myślnikiem, aby pomniejszyć; na zielone strzałki, aby przejść do map sąsiednich.


METAR-TAF: